Time;durP1;ratioP1;P1;durP2;ratioP2;P2;SDS_P1;SDS_P2;PMS_P1;PMS_P2;Temp;Humidity;BMP_temperature;BMP_pressure;BME280_temperature;BME280_humidity;BME280_pressure;Samples;Min_cycle;Max_cycle;Signal;HPM_P1;HPM_P2
2021/05/02 00:00:28;;;;;;;16.35;7.80;;;7.50;99.90;;;;;;5062305;28;20116;-79
2021/05/02 00:02:56;;;;;;;22.63;6.45;;;7.40;99.90;;;;;;5061369;28;20037;-79
2021/05/02 00:05:24;;;;;;;13.10;6.85;;;7.40;99.90;;;;;;5062377;28;20025;-79
2021/05/02 00:07:51;;;;;;;11.50;6.60;;;7.40;99.90;;;;;;5062024;28;20037;-79
2021/05/02 00:10:19;;;;;;;22.95;6.50;;;7.30;99.90;;;;;;5062461;28;20021;-78
2021/05/02 00:12:45;;;;;;;15.18;7.50;;;7.30;99.90;;;;;;5061880;28;20124;-79
2021/05/02 00:15:15;;;;;;;16.13;7.63;;;7.30;99.90;;;;;;5046590;28;20080;-79
2021/05/02 00:17:43;;;;;;;17.73;8.18;;;7.30;99.90;;;;;;5045214;28;20041;-80
2021/05/02 00:20:11;;;;;;;11.48;5.97;;;7.30;99.90;;;;;;5061953;28;20036;-78
2021/05/02 00:22:38;;;;;;;12.23;6.05;;;7.30;99.90;;;;;;5061689;28;20030;-79
2021/05/02 00:25:06;;;;;;;15.60;7.05;;;7.20;99.90;;;;;;5046664;28;20132;-81
2021/05/02 00:27:31;;;;;;;15.15;7.07;;;7.30;99.90;;;;;;5046587;28;20052;-80
2021/05/02 00:29:58;;;;;;;12.93;7.40;;;7.30;99.90;;;;;;5061437;28;20029;-80
2021/05/02 00:35:35;;;;;;;11.02;5.65;;;7.10;99.90;;;;;;5142925;27;20350;-79
2021/05/02 00:38:01;;;;;;;13.95;6.13;;;7.00;99.90;;;;;;5121192;28;20028;-78
2021/05/02 00:40:38;;;;;;;12.52;5.93;;;7.00;99.90;;;;;;5121475;28;20024;-79
2021/05/02 00:43:40;;;;;;;13.73;6.15;;;7.00;99.90;;;;;;5120881;28;20032;-80
2021/05/02 00:46:09;;;;;;;12.85;6.32;;;7.00;99.90;;;;;;5121066;28;20027;-79
2021/05/02 00:49:19;;;;;;;11.82;5.60;;;6.90;99.90;;;;;;5120675;28;20028;-77
2021/05/02 00:51:55;;;;;;;12.95;6.43;;;6.90;99.90;;;;;;5022690;28;20044;-79
2021/05/02 00:54:36;;;;;;;11.95;6.28;;;6.90;99.90;;;;;;5022945;28;20041;-78
2021/05/02 00:57:11;;;;;;;13.43;7.20;;;6.90;99.90;;;;;;5095066;28;20032;-78
2021/05/02 00:59:43;;;;;;;13.95;6.57;;;6.70;99.90;;;;;;5122259;28;20594;-79
2021/05/02 01:02:11;;;;;;;21.80;6.88;;;6.80;99.90;;;;;;5122183;28;20031;-79
2021/05/02 01:04:43;;;;;;;11.63;6.07;;;6.70;99.90;;;;;;5122010;28;20109;-79
2021/05/02 01:07:17;;;;;;;19.23;7.05;;;6.70;99.90;;;;;;5122316;28;20020;-80
2021/05/02 01:09:43;;;;;;;12.90;5.70;;;6.60;99.90;;;;;;5121775;28;20024;-79
2021/05/02 01:12:14;;;;;;;15.18;5.75;;;6.60;99.90;;;;;;5120440;28;20031;-79
2021/05/02 01:14:46;;;;;;;12.48;6.43;;;6.60;99.90;;;;;;5122043;28;20043;-81
2021/05/02 01:17:16;;;;;;;9.98;5.25;;;6.60;99.90;;;;;;5120467;28;20043;-80
2021/05/02 01:19:42;;;;;;;12.23;6.13;;;6.60;99.90;;;;;;5120652;28;20118;-79
2021/05/02 01:22:16;;;;;;;12.80;5.45;;;6.50;99.90;;;;;;5120595;28;20035;-80
2021/05/02 01:25:00;;;;;;;12.63;5.55;;;6.50;99.90;;;;;;5119857;28;20376;-78
2021/05/02 01:27:29;;;;;;;13.50;6.30;;;6.40;99.90;;;;;;5122003;28;20388;-79
2021/05/02 01:29:55;;;;;;;8.45;4.55;;;6.50;99.90;;;;;;5105090;28;20032;-79
2021/05/02 01:32:22;;;;;;;9.38;4.85;;;6.50;99.90;;;;;;5101134;28;20028;-79
2021/05/02 01:34:49;;;;;;;12.02;5.53;;;6.30;99.90;;;;;;5099613;28;20052;-79
2021/05/02 01:37:15;;;;;;;11.10;5.55;;;6.30;99.90;;;;;;5099735;28;20032;-79
2021/05/02 01:39:41;;;;;;;11.73;5.28;;;6.40;99.90;;;;;;5099368;28;20036;-78
2021/05/02 01:42:08;;;;;;;10.93;5.32;;;6.30;99.90;;;;;;5099517;28;20028;-79
2021/05/02 01:44:34;;;;;;;12.07;5.22;;;6.20;99.90;;;;;;5100784;28;20054;-77
2021/05/02 01:47:09;;;;;;;14.00;6.18;;;6.20;99.90;;;;;;5087143;28;20366;-80
2021/05/02 01:49:39;;;;;;;10.90;5.10;;;6.20;99.90;;;;;;5086203;28;20025;-78
2021/05/02 01:52:05;;;;;;;9.00;4.38;;;6.10;99.90;;;;;;5085816;28;20021;-78
2021/05/02 01:54:31;;;;;;;10.75;5.20;;;6.10;99.90;;;;;;5086892;28;20033;-79
2021/05/02 01:56:58;;;;;;;9.63;4.68;;;6.10;99.90;;;;;;5087185;28;20033;-79
2021/05/02 01:59:24;;;;;;;14.98;5.30;;;6.10;99.90;;;;;;5086055;28;20043;-81
2021/05/02 02:01:50;;;;;;;10.65;5.22;;;6.10;99.90;;;;;;5087043;28;20029;-79
2021/05/02 02:04:15;;;;;;;11.73;5.90;;;6.10;99.90;;;;;;5085239;28;20028;-79
2021/05/02 02:06:41;;;;;;;9.10;4.85;;;6.10;99.90;;;;;;5086603;28;20066;-78
2021/05/02 02:09:09;;;;;;;14.25;4.65;;;6.00;99.90;;;;;;5069168;28;20028;-78
2021/05/02 02:11:36;;;;;;;9.45;5.32;;;6.10;99.90;;;;;;5093198;28;20075;-80
2021/05/02 02:14:02;;;;;;;10.93;4.72;;;6.10;99.90;;;;;;5082055;28;20066;-79
2021/05/02 02:16:28;;;;;;;10.68;5.22;;;6.10;99.90;;;;;;5066997;28;20025;-80
2021/05/02 02:18:54;;;;;;;11.68;5.20;;;6.10;99.90;;;;;;5066777;28;20085;-80
2021/05/02 02:21:24;;;;;;;8.93;4.53;;;6.10;99.90;;;;;;5076246;28;20048;-79
2021/05/02 02:24:01;;;;;;;7.50;4.43;;;6.00;99.90;;;;;;5085441;28;20119;-79
2021/05/02 02:26:48;;;;;;;6.82;3.63;;;6.00;99.90;;;;;;5086648;28;20090;-80
2021/05/02 02:29:15;;;;;;;7.78;3.67;;;6.00;99.90;;;;;;5086220;28;20035;-80
2021/05/02 02:31:46;;;;;;;7.05;4.07;;;6.00;99.90;;;;;;5085294;28;20032;-80
2021/05/02 02:34:13;;;;;;;6.90;3.53;;;6.00;99.90;;;;;;5084824;28;20075;-80
2021/05/02 02:36:40;;;;;;;15.30;6.47;;;6.00;99.90;;;;;;5084599;28;20024;-80
2021/05/02 02:39:06;;;;;;;11.73;5.70;;;6.00;99.90;;;;;;5084958;28;20456;-78
2021/05/02 02:41:36;;;;;;;7.57;4.03;;;6.00;99.90;;;;;;5084826;28;20025;-78
2021/05/02 02:44:03;;;;;;;9.93;4.53;;;6.00;99.90;;;;;;5086086;28;20027;-79
2021/05/02 02:46:30;;;;;;;10.48;5.43;;;6.00;99.90;;;;;;5086409;28;20115;-79
2021/05/02 02:48:57;;;;;;;10.25;4.50;;;6.10;99.90;;;;;;5086330;28;20448;-79
2021/05/02 02:51:28;;;;;;;7.85;4.40;;;6.00;99.90;;;;;;5085038;28;20039;-80
2021/05/02 02:53:56;;;;;;;8.15;4.15;;;6.10;99.90;;;;;;5084837;28;20033;-78
2021/05/02 02:56:23;;;;;;;11.07;4.72;;;6.00;99.90;;;;;;5084316;28;20082;-80
2021/05/02 02:59:15;;;;;;;11.65;4.55;;;6.00;99.90;;;;;;5084036;28;20020;-79
2021/05/02 03:01:44;;;;;;;11.07;5.30;;;6.00;99.90;;;;;;5084561;28;20565;-79
2021/05/02 03:04:12;;;;;;;8.55;4.60;;;6.00;99.90;;;;;;5082486;28;20040;-78
2021/05/02 03:06:38;;;;;;;9.43;4.75;;;5.90;99.90;;;;;;5085779;28;20029;-80
2021/05/02 03:09:04;;;;;;;11.32;4.95;;;6.00;99.90;;;;;;5084543;28;20030;-79
2021/05/02 03:11:30;;;;;;;10.65;5.15;;;5.80;99.90;;;;;;5085701;28;20024;-79
2021/05/02 03:13:57;;;;;;;13.85;6.07;;;5.80;99.90;;;;;;5084390;28;20059;-79
2021/05/02 03:16:29;;;;;;;12.73;5.45;;;5.90;99.90;;;;;;5085732;28;20032;-78
2021/05/02 03:19:23;;;;;;;13.82;6.55;;;5.60;99.90;;;;;;5084227;28;20035;-78
2021/05/02 03:22:06;;;;;;;12.63;4.72;;;5.70;99.90;;;;;;5084569;28;20120;-78
2021/05/02 03:24:34;;;;;;;10.07;5.50;;;5.60;99.90;;;;;;5085491;28;20028;-78
2021/05/02 03:27:07;;;;;;;9.68;4.57;;;5.70;99.90;;;;;;5084092;28;20381;-78
2021/05/02 03:29:41;;;;;;;13.48;5.78;;;5.70;99.90;;;;;;5084182;28;20059;-79
2021/05/02 03:32:10;;;;;;;16.52;6.68;;;5.60;99.90;;;;;;5085587;28;20029;-78
2021/05/02 03:34:40;;;;;;;11.70;6.35;;;5.60;99.90;;;;;;5084641;28;20408;-78
2021/05/02 03:37:16;;;;;;;12.93;5.45;;;5.60;99.90;;;;;;5085407;28;20032;-79
2021/05/02 03:39:47;;;;;;;14.57;6.13;;;5.50;99.90;;;;;;5083796;28;20023;-79
2021/05/02 03:42:13;;;;;;;15.65;5.18;;;5.40;99.90;;;;;;5083556;28;20029;-78
2021/05/02 03:44:39;;;;;;;9.57;5.03;;;5.40;99.90;;;;;;5085165;28;20037;-78
2021/05/02 03:47:04;;;;;;;10.73;5.45;;;5.40;99.90;;;;;;5084986;28;20036;-78
2021/05/02 03:49:30;;;;;;;11.32;5.70;;;5.30;99.90;;;;;;5084930;28;20025;-79
2021/05/02 03:51:56;;;;;;;12.18;5.82;;;5.30;99.90;;;;;;5083989;28;20031;-79
2021/05/02 03:54:22;;;;;;;12.50;6.13;;;5.30;99.90;;;;;;5083431;28;20100;-79
2021/05/02 03:56:48;;;;;;;10.30;6.30;;;5.30;99.90;;;;;;5085171;28;20045;-79
2021/05/02 03:59:17;;;;;;;14.48;6.80;;;5.20;99.90;;;;;;5084987;28;20059;-78
2021/05/02 04:01:44;;;;;;;16.92;6.05;;;5.20;99.90;;;;;;5084961;28;20039;-79
2021/05/02 04:04:11;;;;;;;14.57;6.45;;;5.20;99.90;;;;;;5083762;28;20033;-81
2021/05/02 04:06:37;;;;;;;10.55;5.60;;;5.30;99.90;;;;;;5083599;28;20032;-79
2021/05/02 04:09:05;;;;;;;16.33;7.07;;;5.30;99.90;;;;;;5082984;28;20025;-80
2021/05/02 04:11:30;;;;;;;14.73;6.18;;;5.20;99.90;;;;;;5084803;28;20028;-80
2021/05/02 04:13:56;;;;;;;13.88;6.60;;;5.30;99.90;;;;;;5084755;28;20039;-80
2021/05/02 04:16:21;;;;;;;12.50;6.78;;;5.30;99.90;;;;;;5083652;28;20025;-80
2021/05/02 04:18:47;;;;;;;12.00;5.65;;;5.20;99.90;;;;;;5084935;28;20038;-79
2021/05/02 04:21:13;;;;;;;15.55;6.90;;;5.20;99.90;;;;;;5084730;28;20045;-78
2021/05/02 04:23:38;;;;;;;15.35;6.40;;;5.20;99.90;;;;;;5084442;28;20032;-78
2021/05/02 04:26:04;;;;;;;16.30;6.03;;;5.30;99.90;;;;;;5083277;28;20028;-78
2021/05/02 04:28:30;;;;;;;14.50;6.57;;;5.30;99.90;;;;;;5082821;28;20037;-79
2021/05/02 04:30:55;;;;;;;12.43;6.05;;;5.30;99.90;;;;;;5080230;28;20099;-76
2021/05/02 04:33:21;;;;;;;13.75;6.53;;;5.50;99.90;;;;;;5079158;28;20495;-77
2021/05/02 04:35:47;;;;;;;14.45;6.82;;;5.50;99.90;;;;;;5064478;28;20040;-75
2021/05/02 04:38:13;;;;;;;18.02;8.02;;;5.60;99.90;;;;;;5064339;28;20389;-76
2021/05/02 04:40:38;;;;;;;14.70;7.18;;;5.80;99.90;;;;;;5063237;28;20122;-77
2021/05/02 04:43:04;;;;;;;17.02;7.22;;;5.80;99.90;;;;;;5079622;28;20029;-74
2021/05/02 04:45:29;;;;;;;16.58;7.10;;;5.80;99.90;;;;;;5062956;28;20026;-76
2021/05/02 04:47:55;;;;;;;20.13;8.70;;;5.90;99.90;;;;;;5063336;28;20032;-76
2021/05/02 04:50:21;;;;;;;19.05;7.90;;;6.00;99.90;;;;;;5079503;28;20040;-76
2021/05/02 04:52:46;;;;;;;18.92;7.65;;;6.00;99.90;;;;;;5063071;28;20033;-76
2021/05/02 04:55:12;;;;;;;14.98;7.75;;;6.10;99.90;;;;;;5079633;28;20091;-76
2021/05/02 04:57:38;;;;;;;17.45;8.00;;;6.00;99.90;;;;;;5079261;28;20133;-76
2021/05/02 05:00:06;;;;;;;21.92;8.18;;;6.20;99.90;;;;;;5064300;28;20033;-77
2021/05/02 05:02:31;;;;;;;16.60;7.32;;;6.20;99.90;;;;;;5079887;28;20021;-76
2021/05/02 05:04:57;;;;;;;16.35;7.72;;;6.20;99.90;;;;;;5063982;28;20114;-76
2021/05/02 05:07:23;;;;;;;14.85;6.82;;;6.30;99.90;;;;;;5064383;28;20029;-77
2021/05/02 05:09:48;;;;;;;17.65;7.50;;;6.40;99.90;;;;;;5062967;28;20025;-76
2021/05/02 05:12:14;;;;;;;16.75;7.55;;;6.40;99.90;;;;;;5063458;28;20025;-75
2021/05/02 05:14:40;;;;;;;16.50;6.82;;;6.50;99.90;;;;;;5064122;28;20044;-77
2021/05/02 05:17:05;;;;;;;26.13;12.27;;;6.40;99.90;;;;;;5063823;28;20033;-77
2021/05/02 05:19:31;;;;;;;21.30;8.63;;;6.50;99.90;;;;;;5062063;28;20098;-78
2021/05/02 05:21:56;;;;;;;14.90;7.63;;;6.60;99.90;;;;;;5080514;28;20021;-74
2021/05/02 05:24:22;;;;;;;14.35;7.22;;;6.70;99.90;;;;;;5079814;28;20120;-76
2021/05/02 05:26:47;;;;;;;17.33;7.10;;;6.70;99.90;;;;;;5067026;28;20029;-74
2021/05/02 05:29:13;;;;;;;21.17;7.57;;;6.70;99.90;;;;;;5067608;28;20084;-76
2021/05/02 05:31:38;;;;;;;16.98;8.05;;;6.80;99.90;;;;;;5081092;28;20032;-77
2021/05/02 05:34:04;;;;;;;13.13;6.65;;;6.80;99.90;;;;;;5092029;28;20117;-77
2021/05/02 05:36:30;;;;;;;17.73;7.38;;;6.80;99.90;;;;;;5082010;28;20048;-79
2021/05/02 05:38:55;;;;;;;17.02;7.25;;;6.80;99.90;;;;;;5066249;28;20088;-80
2021/05/02 05:41:21;;;;;;;18.23;7.20;;;6.90;99.90;;;;;;5067552;28;20024;-79
2021/05/02 05:43:47;;;;;;;15.07;7.15;;;6.80;99.90;;;;;;5069274;28;20028;-78
2021/05/02 05:46:13;;;;;;;15.40;6.47;;;6.80;99.90;;;;;;5086021;28;20035;-80
2021/05/02 05:48:41;;;;;;;15.88;7.68;;;6.90;99.90;;;;;;5086148;28;20096;-77
2021/05/02 05:51:08;;;;;;;19.92;8.55;;;7.00;99.90;;;;;;5087555;28;20120;-77
2021/05/02 05:53:37;;;;;;;20.08;8.27;;;7.00;99.90;;;;;;5086255;28;20035;-77
2021/05/02 05:56:03;;;;;;;12.95;6.55;;;7.10;99.90;;;;;;5086012;28;20041;-78
2021/05/02 05:58:31;;;;;;;12.90;6.28;;;7.20;99.90;;;;;;5086075;28;20028;-79
2021/05/02 06:00:57;;;;;;;16.88;6.88;;;7.30;99.90;;;;;;5087401;28;20021;-80
2021/05/02 06:03:22;;;;;;;15.98;8.20;;;7.30;99.90;;;;;;5086187;28;20428;-78
2021/05/02 06:05:48;;;;;;;18.73;7.70;;;7.40;99.90;;;;;;5086078;28;20036;-78
2021/05/02 06:08:14;;;;;;;20.60;7.93;;;7.50;99.90;;;;;;5085107;28;20028;-80
2021/05/02 06:10:40;;;;;;;16.02;6.88;;;7.60;99.90;;;;;;5086974;28;20024;-79
2021/05/02 06:13:06;;;;;;;17.17;7.90;;;7.60;99.90;;;;;;5085418;28;20233;-77
2021/05/02 06:15:32;;;;;;;12.32;6.20;;;7.70;99.90;;;;;;5077955;28;20045;-76
2021/05/02 06:17:57;;;;;;;13.45;7.07;;;7.70;99.90;;;;;;5072064;28;20032;-78
2021/05/02 06:20:23;;;;;;;18.13;7.80;;;7.80;99.90;;;;;;5086900;28;20037;-78
2021/05/02 06:22:52;;;;;;;30.58;10.10;;;7.90;99.90;;;;;;5087135;28;20068;-79
2021/05/02 06:25:18;;;;;;;18.05;7.18;;;8.00;99.90;;;;;;5085693;28;20513;-79
2021/05/02 06:27:44;;;;;;;21.60;7.75;;;8.00;99.90;;;;;;5086402;28;20035;-79
2021/05/02 06:30:10;;;;;;;15.60;7.53;;;8.10;99.90;;;;;;5085101;28;20401;-78
2021/05/02 06:32:37;;;;;;;15.10;6.22;;;8.30;99.90;;;;;;5085256;28;20055;-81
2021/05/02 06:35:04;;;;;;;16.52;7.70;;;8.30;99.90;;;;;;5085954;28;20053;-78
2021/05/02 06:37:29;;;;;;;14.90;7.55;;;8.50;99.90;;;;;;5086883;28;20039;-82
2021/05/02 06:39:58;;;;;;;14.77;5.97;;;8.50;99.90;;;;;;5086773;28;20029;-79
2021/05/02 06:42:24;;;;;;;15.43;6.43;;;8.50;99.90;;;;;;5087225;28;20036;-79
2021/05/02 06:44:51;;;;;;;13.82;6.43;;;8.60;99.90;;;;;;5086289;28;20460;-81
2021/05/02 06:47:16;;;;;;;15.65;6.88;;;8.60;99.90;;;;;;5085338;28;20088;-77
2021/05/02 06:49:42;;;;;;;14.68;6.80;;;8.60;99.90;;;;;;5086746;28;20025;-80
2021/05/02 06:52:08;;;;;;;18.30;6.88;;;8.60;99.90;;;;;;5085603;28;20028;-79
2021/05/02 06:54:34;;;;;;;16.17;6.95;;;8.70;99.90;;;;;;5086268;28;20044;-81
2021/05/02 06:56:59;;;;;;;14.38;7.38;;;8.80;99.90;;;;;;5085190;28;20058;-73
2021/05/02 06:59:25;;;;;;;13.82;7.05;;;8.80;99.90;;;;;;5086300;28;20068;-79
2021/05/02 07:01:51;;;;;;;12.98;6.97;;;9.00;99.90;;;;;;5084830;28;20032;-77
2021/05/02 07:04:16;;;;;;;12.07;6.38;;;8.90;99.90;;;;;;5086335;28;20032;-79
2021/05/02 07:06:42;;;;;;;13.45;6.35;;;9.00;99.90;;;;;;5084834;28;20032;-79
2021/05/02 07:09:07;;;;;;;12.07;6.00;;;9.10;99.90;;;;;;5085563;28;20033;-77
2021/05/02 07:11:33;;;;;;;25.92;8.40;;;9.10;99.90;;;;;;5085909;28;20028;-80
2021/05/02 07:13:59;;;;;;;18.98;6.32;;;9.00;99.90;;;;;;5080866;28;20309;-80
2021/05/02 07:16:25;;;;;;;13.07;6.97;;;9.10;99.90;;;;;;5076886;28;20024;-80
2021/05/02 07:18:51;;;;;;;10.27;6.00;;;9.00;99.90;;;;;;5084679;28;20025;-79
2021/05/02 07:21:19;;;;;;;15.10;4.97;;;8.90;99.90;;;;;;5085608;28;20108;-77
2021/05/02 07:23:48;;;;;;;14.00;6.35;;;8.90;99.90;;;;;;5084184;28;20059;-78
2021/05/02 07:26:14;;;;;;;12.48;4.50;;;8.90;99.90;;;;;;5084329;28;20029;-78
2021/05/02 07:28:40;;;;;;;10.77;5.72;;;8.90;99.90;;;;;;5085602;28;20052;-74
2021/05/02 07:31:05;;;;;;;21.17;5.30;;;8.90;99.90;;;;;;5084068;28;20031;-82
2021/05/02 07:33:31;;;;;;;12.82;5.18;;;9.00;99.90;;;;;;5083929;28;20041;-81
2021/05/02 07:35:57;;;;;;;11.55;4.95;;;9.10;99.90;;;;;;5079493;28;20029;-73
2021/05/02 07:38:24;;;;;;;10.73;5.25;;;9.20;99.90;;;;;;5072014;28;20052;-82
2021/05/02 07:40:50;;;;;;;10.65;4.50;;;9.40;99.90;;;;;;5072788;28;20036;-77
2021/05/02 07:43:17;;;;;;;8.82;4.57;;;9.30;99.90;;;;;;5070977;28;20044;-77
2021/05/02 07:45:43;;;;;;;9.25;4.72;;;9.30;99.90;;;;;;5063847;28;20084;-80
2021/05/02 07:48:08;;;;;;;6.47;3.90;;;9.40;99.90;;;;;;5065415;28;20040;-79
2021/05/02 07:50:36;;;;;;;9.95;4.82;;;9.40;99.90;;;;;;5080146;28;20025;-79
2021/05/02 07:53:02;;;;;;;8.77;4.32;;;9.40;99.90;;;;;;5080984;28;20025;-79
2021/05/02 07:55:29;;;;;;;5.32;2.97;;;9.40;99.90;;;;;;5081007;28;20045;-76
2021/05/02 07:57:54;;;;;;;9.95;4.35;;;9.50;99.90;;;;;;5080276;28;20472;-80
2021/05/02 08:00:21;;;;;;;7.85;4.45;;;9.50;99.90;;;;;;5079567;28;20021;-76
2021/05/02 08:02:47;;;;;;;7.10;3.90;;;9.50;99.90;;;;;;5079343;28;20168;-81
2021/05/02 08:05:13;;;;;;;7.90;4.25;;;9.60;99.90;;;;;;5064290;28;20029;-80
2021/05/02 08:07:39;;;;;;;9.27;4.35;;;9.60;99.90;;;;;;5079819;28;20055;-79
2021/05/02 08:10:07;;;;;;;6.95;3.72;;;9.80;99.90;;;;;;5078955;28;20059;-77
2021/05/02 08:12:32;;;;;;;6.15;3.53;;;9.90;99.90;;;;;;5084692;28;20548;-74
2021/05/02 08:14:58;;;;;;;5.60;3.35;;;9.90;99.90;;;;;;5084775;28;20037;-79
2021/05/02 08:17:24;;;;;;;8.38;3.75;;;9.90;99.90;;;;;;5072997;28;20084;-77
2021/05/02 08:19:49;;;;;;;6.78;3.38;;;10.00;99.90;;;;;;5083507;28;20024;-80
2021/05/02 08:22:16;;;;;;;6.45;3.60;;;10.00;99.90;;;;;;5083499;28;20028;-80
2021/05/02 08:24:41;;;;;;;7.07;3.33;;;10.00;99.90;;;;;;5083399;28;20032;-80
2021/05/02 08:27:07;;;;;;;5.40;2.70;;;10.00;99.90;;;;;;5082376;28;20020;-82
2021/05/02 08:29:32;;;;;;;4.88;3.00;;;10.00;99.90;;;;;;5079744;28;20111;-76
2021/05/02 08:31:58;;;;;;;7.15;2.78;;;10.00;99.90;;;;;;5083643;28;20031;-80
2021/05/02 08:34:24;;;;;;;6.20;3.50;;;10.00;99.90;;;;;;5084066;28;20056;-82
2021/05/02 08:36:49;;;;;;;6.03;2.97;;;10.10;99.90;;;;;;5083342;28;20031;-77
2021/05/02 08:39:15;;;;;;;5.97;3.47;;;10.40;99.90;;;;;;5083056;28;20028;-81
2021/05/02 08:41:41;;;;;;;8.35;3.47;;;10.80;99.90;;;;;;5070527;28;20029;-81
2021/05/02 08:44:07;;;;;;;7.10;3.67;;;10.70;99.90;;;;;;5067136;28;20025;-81
2021/05/02 08:46:34;;;;;;;6.47;4.28;;;10.60;99.90;;;;;;5078803;28;20176;-80
2021/05/02 08:49:02;;;;;;;6.47;3.47;;;10.40;99.90;;;;;;5073985;28;20408;-80
2021/05/02 08:51:28;;;;;;;6.20;3.67;;;10.10;99.90;;;;;;5079795;28;20032;-83
2021/05/02 08:53:55;;;;;;;8.80;3.90;;;9.90;99.90;;;;;;5064069;28;20029;-74
2021/05/02 08:56:21;;;;;;;10.98;3.85;;;9.70;99.90;;;;;;5067624;28;20033;-78
2021/05/02 08:58:46;;;;;;;7.07;3.83;;;9.60;99.90;;;;;;5081510;28;20044;-77
2021/05/02 09:01:12;;;;;;;7.20;3.40;;;9.40;99.90;;;;;;5083808;28;20025;-78
2021/05/02 09:03:46;;;;;;;6.60;3.60;;;9.40;99.90;;;;;;5067792;28;20036;-79
2021/05/02 09:06:17;;;;;;;9.23;3.83;;;9.50;99.90;;;;;;5066741;28;20029;-77
2021/05/02 09:08:43;;;;;;;7.70;4.50;;;9.70;99.90;;;;;;5067121;28;20037;-76
2021/05/02 09:11:10;;;;;;;5.95;3.38;;;10.00;99.90;;;;;;5066070;28;20030;-81
2021/05/02 09:13:48;;;;;;;5.55;3.47;;;10.10;99.90;;;;;;5066876;28;20029;-78
2021/05/02 09:16:14;;;;;;;5.38;3.08;;;10.40;99.90;;;;;;5066238;28;20025;-83
2021/05/02 09:18:43;;;;;;;8.82;3.90;;;10.40;99.90;;;;;;5066561;28;20040;-82
2021/05/02 09:21:31;;;;;;;4.63;2.42;;;10.50;99.90;;;;;;5068697;28;20079;-77
2021/05/02 09:24:00;;;;;;;9.38;3.53;;;10.60;99.90;;;;;;5076244;28;20079;-78
2021/05/02 09:26:31;;;;;;;4.45;2.05;;;10.70;99.90;;;;;;5066352;28;20033;-79
2021/05/02 09:28:59;;;;;;;4.97;2.65;;;10.80;99.90;;;;;;5070006;28;20031;-75
2021/05/02 09:31:28;;;;;;;10.15;2.13;;;10.70;99.90;;;;;;5087124;28;20427;-77
2021/05/02 09:34:10;;;;;;;3.40;2.38;;;10.70;99.90;;;;;;5086164;28;20081;-76
2021/05/02 09:36:56;;;;;;;3.97;2.08;;;10.80;99.90;;;;;;5085952;28;20029;-78
2021/05/02 09:39:56;;;;;;;3.30;2.33;;;10.90;99.90;;;;;;5087953;28;20095;-73
2021/05/02 09:42:24;;;;;;;5.47;2.80;;;11.10;99.90;;;;;;5086684;28;20385;-74
2021/05/02 09:45:01;;;;;;;5.47;2.92;;;11.20;99.90;;;;;;5085930;28;20029;-74
2021/05/02 09:47:31;;;;;;;6.53;2.78;;;11.20;99.90;;;;;;5087253;28;20108;-75
2021/05/02 09:50:21;;;;;;;3.90;2.30;;;11.10;99.90;;;;;;5086545;28;20024;-78
2021/05/02 09:53:02;;;;;;;2.17;1.70;;;11.10;99.90;;;;;;5086974;28;20564;-80
2021/05/02 09:55:36;;;;;;;7.88;2.55;;;11.40;99.90;;;;;;5083349;28;20104;-84
2021/05/02 09:58:07;;;;;;;2.42;1.85;;;11.70;99.90;;;;;;5067943;28;20053;-78
2021/05/02 10:00:40;;;;;;;2.58;2.05;;;11.80;99.90;;;;;;5067180;28;20401;-75
2021/05/02 10:03:28;;;;;;;5.75;2.55;;;11.80;99.90;;;;;;5065844;28;20017;-74
2021/05/02 10:05:59;;;;;;;4.03;1.85;;;11.30;99.90;;;;;;5067350;28;20025;-74
2021/05/02 10:08:27;;;;;;;5.15;2.33;;;10.80;99.90;;;;;;5066296;28;20036;-71
2021/05/02 10:10:54;;;;;;;4.22;2.50;;;10.20;99.90;;;;;;5065661;28;20093;-76
2021/05/02 10:13:20;;;;;;;4.60;2.90;;;9.70;99.90;;;;;;5067056;28;20029;-73
2021/05/02 10:15:46;;;;;;;5.80;2.20;;;9.50;99.90;;;;;;5066919;28;20032;-77
2021/05/02 10:18:11;;;;;;;6.68;3.20;;;9.40;99.90;;;;;;5065163;28;20503;-74
2021/05/02 10:20:37;;;;;;;5.60;3.05;;;9.40;99.90;;;;;;5065352;28;20055;-72
2021/05/02 10:23:03;;;;;;;8.23;3.53;;;9.50;99.90;;;;;;5065616;28;20029;-73
2021/05/02 10:25:29;;;;;;;6.28;3.13;;;9.30;99.90;;;;;;5066673;28;20051;-75
2021/05/02 10:27:55;;;;;;;4.90;3.25;;;9.30;99.90;;;;;;5065549;28;20029;-72
2021/05/02 10:30:43;;;;;;;5.97;2.65;;;9.30;99.90;;;;;;5066854;28;20125;-74
2021/05/02 10:33:13;;;;;;;9.15;4.30;;;9.30;99.90;;;;;;5066261;28;20039;-73
2021/05/02 10:35:54;;;;;;;7.07;3.65;;;9.10;99.90;;;;;;5066423;28;20067;-73
2021/05/02 10:38:22;;;;;;;7.28;3.67;;;9.00;99.90;;;;;;5065377;28;20037;-76
2021/05/02 10:40:48;;;;;;;13.55;3.40;;;8.90;99.90;;;;;;5071004;28;20060;-77
2021/05/02 10:43:30;;;;;;;6.70;2.85;;;8.80;99.90;;;;;;5066641;28;20028;-73
2021/05/02 10:45:57;;;;;;;5.70;3.33;;;8.90;99.90;;;;;;5075001;28;20028;-75
2021/05/02 10:48:22;;;;;;;13.85;3.83;;;9.00;99.90;;;;;;5081771;28;20474;-71
2021/05/02 10:50:53;;;;;;;5.90;3.17;;;9.10;99.90;;;;;;5081901;28;20025;-73
2021/05/02 10:53:22;;;;;;;10.25;4.00;;;9.10;99.90;;;;;;5066350;28;20082;-75
2021/05/02 10:56:06;;;;;;;9.85;3.30;;;9.10;99.90;;;;;;5081425;28;20059;-75
2021/05/02 10:58:33;;;;;;;;;;;9.20;99.90;;;;;;5066595;28;20021;-76
2021/05/02 11:01:03;;;;;;;6.50;2.55;;;9.30;99.90;;;;;;5065921;28;20292;-77
2021/05/02 11:03:37;;;;;;;6.63;3.17;;;9.40;99.90;;;;;;5066222;28;20162;-75
2021/05/02 11:06:04;;;;;;;5.60;2.55;;;9.50;99.90;;;;;;5065913;28;20043;-75
2021/05/02 11:08:57;;;;;;;8.60;3.38;;;9.60;99.90;;;;;;5081072;28;20020;-75
2021/05/02 11:11:29;;;;;;;11.15;3.45;;;9.80;99.90;;;;;;5081575;28;20119;-77
2021/05/02 11:14:11;;;;;;;15.55;3.00;;;10.00;99.90;;;;;;5081071;28;20056;-74
2021/05/02 11:16:40;;;;;;;8.25;3.28;;;10.20;99.90;;;;;;5081142;28;20033;-75
2021/05/02 11:19:08;;;;;;;3.53;1.52;;;10.40;99.90;;;;;;5080302;28;20029;-75
2021/05/02 11:21:49;;;;;;;5.28;2.83;;;10.40;99.90;;;;;;5065716;28;20021;-76
2021/05/02 11:24:19;;;;;;;5.78;2.65;;;10.60;99.90;;;;;;5080776;28;20025;-71
2021/05/02 11:30:06;;;;;;;2.78;1.98;;;10.60;99.90;;;;;;5065243;28;20060;-75
2021/05/02 11:32:40;;;;;;;6.20;2.78;;;10.60;99.90;;;;;;5065252;28;20040;-71
2021/05/02 11:35:11;;;;;;;4.82;2.58;;;10.60;99.90;;;;;;5063199;28;20076;-72
2021/05/02 11:37:38;;;;;;;6.03;3.10;;;10.60;99.90;;;;;;5069414;28;20037;-78
2021/05/02 11:40:27;;;;;;;5.65;2.40;;;10.60;99.90;;;;;;5076002;28;20078;-76
2021/05/02 11:43:02;;;;;;;4.65;1.98;;;10.60;99.90;;;;;;5080238;28;20033;-74
2021/05/02 11:45:30;;;;;;;;;;;10.60;99.90;;;;;;5085401;28;20020;-75
2021/05/02 11:47:56;;;;;;;4.75;1.90;;;10.50;99.90;;;;;;5085088;28;19904;-76
2021/05/02 11:50:24;;;;;;;5.10;2.63;;;10.40;99.90;;;;;;5084450;28;20024;-74
2021/05/02 11:52:52;;;;;;;4.03;2.17;;;10.30;99.90;;;;;;5083157;28;20039;-76
2021/05/02 11:55:39;;;;;;;5.28;2.25;;;10.20;99.90;;;;;;5084636;28;20044;-77
2021/05/02 11:58:13;;;;;;;4.30;1.95;;;10.40;99.90;;;;;;5084148;28;20032;-74
2021/05/02 12:00:44;;;;;;;5.15;2.05;;;10.40;99.90;;;;;;5082949;28;20032;-76
2021/05/02 12:03:12;;;;;;;9.25;2.47;;;10.40;99.90;;;;;;5082753;28;20036;-75
2021/05/02 12:05:57;;;;;;;5.40;2.53;;;10.50;99.90;;;;;;5084084;28;20032;-72
2021/05/02 12:08:28;;;;;;;7.95;2.40;;;10.50;99.90;;;;;;5083213;28;20029;-74
2021/05/02 12:11:02;;;;;;;3.40;2.13;;;10.70;99.90;;;;;;5082833;28;20032;-76
2021/05/02 12:13:45;;;;;;;6.85;1.65;;;10.70;99.90;;;;;;5074139;28;20033;-74
2021/05/02 12:16:14;;;;;;;5.18;2.08;;;10.60;99.90;;;;;;5063259;28;20021;-76
2021/05/02 12:18:52;;;;;;;4.22;1.70;;;10.50;99.90;;;;;;5080759;28;20086;-78
2021/05/02 12:21:26;;;;;;;4.57;1.83;;;10.40;99.90;;;;;;5081573;28;20035;-77
2021/05/02 12:24:11;;;;;;;4.72;2.22;;;10.20;99.90;;;;;;5083295;28;20052;-74
2021/05/02 12:26:42;;;;;;;4.50;2.13;;;10.10;99.90;;;;;;5081283;28;20040;-73
2021/05/02 12:29:10;;;;;;;8.70;2.22;;;9.80;99.90;;;;;;5081640;28;20032;-75
2021/05/02 12:31:36;;;;;;;12.57;3.35;;;9.50;99.90;;;;;;5081632;28;20036;-77
2021/05/02 12:34:06;;;;;;;4.93;2.03;;;9.30;99.90;;;;;;5082720;28;20053;-75
2021/05/02 12:36:32;;;;;;;4.72;1.90;;;9.10;99.90;;;;;;5082422;28;20028;-75
2021/05/02 12:39:14;;;;;;;3.30;1.80;;;9.00;99.90;;;;;;5081172;28;20075;-77
2021/05/02 12:41:41;;;;;;;2.35;1.40;;;8.90;99.90;;;;;;5081258;28;20029;-73
2021/05/02 12:44:14;;;;;;;2.30;1.42;;;8.80;99.90;;;;;;5080694;28;20036;-71
2021/05/02 12:46:42;;;;;;;3.45;2.13;;;8.90;99.90;;;;;;5082265;28;20025;-71
2021/05/02 12:49:22;;;;;;;3.13;1.92;;;9.00;99.90;;;;;;5082740;28;20092;-71
2021/05/02 12:52:08;;;;;;;3.03;1.95;;;9.10;99.90;;;;;;5082241;28;20024;-71
2021/05/02 12:54:37;;;;;;;5.40;2.50;;;9.30;99.90;;;;;;5067028;28;20055;-75
2021/05/02 12:57:13;;;;;;;5.38;2.75;;;9.50;99.90;;;;;;5080871;28;20028;-74
2021/05/02 13:02:13;;;;;;;3.88;2.05;;;9.90;99.90;;;;;;5082509;28;20029;-77
2021/05/02 13:04:45;;;;;;;2.92;2.10;;;9.90;99.90;;;;;;5081360;28;20056;-73
2021/05/02 13:07:12;;;;;;;3.63;1.63;;;9.90;99.90;;;;;;5081354;28;20044;-74
2021/05/02 13:09:43;;;;;;;2.42;1.58;;;9.90;99.90;;;;;;5082366;28;20031;-74